sensor_id;sensor_type;location;lat;lon;timestamp;pressure;altitude;pressure_sealevel;temperature
66113;BMP280;52893;52.870;5.822;2022-12-07T00:01:17;101692.41;;;5.27
66113;BMP280;52893;52.870;5.822;2022-12-07T00:03:47;101699.47;;;5.33
66113;BMP280;52893;52.870;5.822;2022-12-07T00:06:16;101692.97;;;5.34
66113;BMP280;52893;52.870;5.822;2022-12-07T00:08:43;101702.69;;;5.30
66113;BMP280;52893;52.870;5.822;2022-12-07T00:11:13;101699.72;;;5.31
66113;BMP280;52893;52.870;5.822;2022-12-07T00:13:41;101697.25;;;5.30
66113;BMP280;52893;52.870;5.822;2022-12-07T00:16:10;101691.84;;;5.30
66113;BMP280;52893;52.870;5.822;2022-12-07T00:18:38;101667.13;;;5.11
66113;BMP280;52893;52.870;5.822;2022-12-07T00:21:10;101664.75;;;5.20
66113;BMP280;52893;52.870;5.822;2022-12-07T00:23:38;101688.63;;;5.28
66113;BMP280;52893;52.870;5.822;2022-12-07T00:26:06;101667.50;;;5.25
66113;BMP280;52893;52.870;5.822;2022-12-07T00:28:34;101686.22;;;5.36
66113;BMP280;52893;52.870;5.822;2022-12-07T00:31:03;101622.78;;;5.07
66113;BMP280;52893;52.870;5.822;2022-12-07T00:33:31;101682.16;;;5.44
66113;BMP280;52893;52.870;5.822;2022-12-07T00:35:59;101685.13;;;5.42
66113;BMP280;52893;52.870;5.822;2022-12-07T00:38:30;101684.31;;;5.47
66113;BMP280;52893;52.870;5.822;2022-12-07T00:40:59;101661.31;;;5.39
66113;BMP280;52893;52.870;5.822;2022-12-07T00:43:27;101682.44;;;5.47
66113;BMP280;52893;52.870;5.822;2022-12-07T00:45:55;101640.94;;;5.22
66113;BMP280;52893;52.870;5.822;2022-12-07T00:48:23;101666.19;;;5.37
66113;BMP280;52893;52.870;5.822;2022-12-07T00:50:51;101674.31;;;5.42
66113;BMP280;52893;52.870;5.822;2022-12-07T00:53:18;101677.31;;;5.41
66113;BMP280;52893;52.870;5.822;2022-12-07T00:55:47;101671.31;;;5.39
66113;BMP280;52893;52.870;5.822;2022-12-07T00:58:14;101652.59;;;5.22
66113;BMP280;52893;52.870;5.822;2022-12-07T01:00:42;101675.09;;;5.33
66113;BMP280;52893;52.870;5.822;2022-12-07T01:03:11;101672.91;;;5.30
66113;BMP280;52893;52.870;5.822;2022-12-07T01:05:39;101668.03;;;5.27
66113;BMP280;52893;52.870;5.822;2022-12-07T01:08:08;101659.63;;;5.23
66113;BMP280;52893;52.870;5.822;2022-12-07T01:10:35;101623.00;;;5.00
66113;BMP280;52893;52.870;5.822;2022-12-07T01:13:04;101665.88;;;5.24
66113;BMP280;52893;52.870;5.822;2022-12-07T01:15:31;101673.72;;;5.25
66113;BMP280;52893;52.870;5.822;2022-12-07T01:17:58;101670.22;;;5.25
66113;BMP280;52893;52.870;5.822;2022-12-07T01:20:25;101674.03;;;5.34
66113;BMP280;52893;52.870;5.822;2022-12-07T01:22:52;101669.69;;;5.38
66113;BMP280;52893;52.870;5.822;2022-12-07T01:25:20;101673.53;;;5.52
66113;BMP280;52893;52.870;5.822;2022-12-07T01:27:47;101678.16;;;5.62
66113;BMP280;52893;52.870;5.822;2022-12-07T01:30:16;101671.41;;;5.64
66113;BMP280;52893;52.870;5.822;2022-12-07T01:32:43;101670.59;;;5.64
66113;BMP280;52893;52.870;5.822;2022-12-07T01:35:10;101664.91;;;5.65
66113;BMP280;52893;52.870;5.822;2022-12-07T01:37:38;101670.31;;;5.65
66113;BMP280;52893;52.870;5.822;2022-12-07T01:40:07;101659.75;;;5.64
66113;BMP280;52893;52.870;5.822;2022-12-07T01:42:35;101661.63;;;5.63
66113;BMP280;52893;52.870;5.822;2022-12-07T01:45:38;101653.22;;;5.60
66113;BMP280;52893;52.870;5.822;2022-12-07T01:48:06;101638.28;;;5.47
66113;BMP280;52893;52.870;5.822;2022-12-07T01:50:35;101645.94;;;5.55
66113;BMP280;52893;52.870;5.822;2022-12-07T01:53:06;101653.50;;;5.63
66113;BMP280;52893;52.870;5.822;2022-12-07T01:55:38;101628.00;;;5.44
66113;BMP280;52893;52.870;5.822;2022-12-07T01:58:05;101662.19;;;5.65
66113;BMP280;52893;52.870;5.822;2022-12-07T02:00:33;101657.59;;;5.71
66113;BMP280;52893;52.870;5.822;2022-12-07T02:03:05;101658.13;;;5.73
66113;BMP280;52893;52.870;5.822;2022-12-07T02:05:34;101637.78;;;5.60
66113;BMP280;52893;52.870;5.822;2022-12-07T02:08:02;101656.75;;;5.75
66113;BMP280;52893;52.870;5.822;2022-12-07T02:10:31;101653.53;;;5.78
66113;BMP280;52893;52.870;5.822;2022-12-07T02:13:03;101661.66;;;5.78
66113;BMP280;52893;52.870;5.822;2022-12-07T02:18:36;101665.19;;;5.79
66113;BMP280;52893;52.870;5.822;2022-12-07T02:21:09;101657.88;;;5.79
66113;BMP280;52893;52.870;5.822;2022-12-07T02:23:43;101667.88;;;5.79
66113;BMP280;52893;52.870;5.822;2022-12-07T02:29:24;101658.13;;;5.78
66113;BMP280;52893;52.870;5.822;2022-12-07T02:32:00;101658.97;;;5.83
66113;BMP280;52893;52.870;5.822;2022-12-07T02:34:36;101655.16;;;5.89
66113;BMP280;52893;52.870;5.822;2022-12-07T02:37:12;101649.75;;;5.95
66113;BMP280;52893;52.870;5.822;2022-12-07T02:39:46;101644.88;;;5.97
66113;BMP280;52893;52.870;5.822;2022-12-07T02:42:18;101651.09;;;6.02
66113;BMP280;52893;52.870;5.822;2022-12-07T02:44:48;101659.75;;;6.04
66113;BMP280;52893;52.870;5.822;2022-12-07T02:47:17;101654.63;;;6.08
66113;BMP280;52893;52.870;5.822;2022-12-07T02:49:46;101640.53;;;6.06
66113;BMP280;52893;52.870;5.822;2022-12-07T02:52:13;101649.75;;;6.15
66113;BMP280;52893;52.870;5.822;2022-12-07T02:54:40;101642.16;;;6.17
66113;BMP280;52893;52.870;5.822;2022-12-07T02:57:20;101637.00;;;6.15
66113;BMP280;52893;52.870;5.822;2022-12-07T03:00:00;101630.78;;;6.10
66113;BMP280;52893;52.870;5.822;2022-12-07T03:02:37;101619.69;;;6.01
66113;BMP280;52893;52.870;5.822;2022-12-07T03:05:19;101643.50;;;6.14
66113;BMP280;52893;52.870;5.822;2022-12-07T03:07:54;101636.19;;;6.15
66113;BMP280;52893;52.870;5.822;2022-12-07T03:10:24;101605.84;;;5.87
66113;BMP280;52893;52.870;5.822;2022-12-07T03:12:59;101641.63;;;6.10
66113;BMP280;52893;52.870;5.822;2022-12-07T03:15:33;101627.53;;;6.03
66113;BMP280;52893;52.870;5.822;2022-12-07T03:18:04;101632.41;;;6.11
66113;BMP280;52893;52.870;5.822;2022-12-07T03:20:32;101637.28;;;6.09
66113;BMP280;52893;52.870;5.822;2022-12-07T03:23:03;101637.81;;;6.06
66113;BMP280;52893;52.870;5.822;2022-12-07T03:25:33;101630.78;;;5.95
66113;BMP280;52893;52.870;5.822;2022-12-07T03:28:03;101612.88;;;5.78
66113;BMP280;52893;52.870;5.822;2022-12-07T03:30:38;101627.50;;;5.77
66113;BMP280;52893;52.870;5.822;2022-12-07T03:33:10;101631.03;;;5.73
66113;BMP280;52893;52.870;5.822;2022-12-07T03:35:41;101631.03;;;5.63
66113;BMP280;52893;52.870;5.822;2022-12-07T03:38:15;101625.59;;;5.53
66113;BMP280;52893;52.870;5.822;2022-12-07T03:40:48;101629.09;;;5.43
66113;BMP280;52893;52.870;5.822;2022-12-07T03:43:17;101620.44;;;5.36
66113;BMP280;52893;52.870;5.822;2022-12-07T03:45:58;101618.25;;;5.28
66113;BMP280;52893;52.870;5.822;2022-12-07T03:48:33;101617.66;;;5.21
66113;BMP280;52893;52.870;5.822;2022-12-07T03:51:07;101616.84;;;5.20
66113;BMP280;52893;52.870;5.822;2022-12-07T03:53:42;101620.91;;;5.18
66113;BMP280;52893;52.870;5.822;2022-12-07T03:56:11;101625.22;;;5.14
66113;BMP280;52893;52.870;5.822;2022-12-07T03:58:39;101616.28;;;5.13
66113;BMP280;52893;52.870;5.822;2022-12-07T04:01:08;101618.72;;;5.15
66113;BMP280;52893;52.870;5.822;2022-12-07T04:03:36;101619.84;;;5.19
66113;BMP280;52893;52.870;5.822;2022-12-07T04:06:03;101620.63;;;5.19
66113;BMP280;52893;52.870;5.822;2022-12-07T04:08:31;101632.56;;;5.18
66113;BMP280;52893;52.870;5.822;2022-12-07T04:10:58;101616.03;;;5.20
66113;BMP280;52893;52.870;5.822;2022-12-07T04:13:25;101625.53;;;5.22
66113;BMP280;52893;52.870;5.822;2022-12-07T04:15:52;101622.00;;;5.22
66113;BMP280;52893;52.870;5.822;2022-12-07T04:18:21;101630.94;;;5.22
66113;BMP280;52893;52.870;5.822;2022-12-07T04:20:48;101603.56;;;5.08
66113;BMP280;52893;52.870;5.822;2022-12-07T04:23:16;101621.44;;;5.20
66113;BMP280;52893;52.870;5.822;2022-12-07T04:25:43;101634.44;;;5.18
66113;BMP280;52893;52.870;5.822;2022-12-07T04:28:10;101615.97;;;5.09
66113;BMP280;52893;52.870;5.822;2022-12-07T04:30:37;101620.31;;;5.10
66113;BMP280;52893;52.870;5.822;2022-12-07T04:33:04;101624.69;;;5.06
66113;BMP280;52893;52.870;5.822;2022-12-07T04:35:33;101623.31;;;5.04
66113;BMP280;52893;52.870;5.822;2022-12-07T04:38:00;101613.28;;;5.04
66113;BMP280;52893;52.870;5.822;2022-12-07T04:40:28;101605.41;;;4.98
66113;BMP280;52893;52.870;5.822;2022-12-07T04:42:55;101594.84;;;4.96
66113;BMP280;52893;52.870;5.822;2022-12-07T04:45:22;101611.41;;;5.05
66113;BMP280;52893;52.870;5.822;2022-12-07T04:47:49;101599.75;;;4.99
66113;BMP280;52893;52.870;5.822;2022-12-07T04:50:17;101600.84;;;5.03
66113;BMP280;52893;52.870;5.822;2022-12-07T04:52:46;101596.75;;;5.01
66113;BMP280;52893;52.870;5.822;2022-12-07T04:55:13;101606.75;;;5.00
66113;BMP280;52893;52.870;5.822;2022-12-07T04:57:40;101604.34;;;4.99
66113;BMP280;52893;52.870;5.822;2022-12-07T05:00:09;101596.47;;;4.97
66113;BMP280;52893;52.870;5.822;2022-12-07T05:02:36;101604.84;;;4.96
66113;BMP280;52893;52.870;5.822;2022-12-07T05:05:04;101564.44;;;4.74
66113;BMP280;52893;52.870;5.822;2022-12-07T05:07:31;101591.59;;;4.94
66113;BMP280;52893;52.870;5.822;2022-12-07T05:10:00;101591.03;;;4.92
66113;BMP280;52893;52.870;5.822;2022-12-07T05:12:27;101588.91;;;4.89
66113;BMP280;52893;52.870;5.822;2022-12-07T05:14:54;101594.81;;;4.86
66113;BMP280;52893;52.870;5.822;2022-12-07T05:17:22;101604.53;;;4.82
66113;BMP280;52893;52.870;5.822;2022-12-07T05:19:49;101597.75;;;4.80
66113;BMP280;52893;52.870;5.822;2022-12-07T05:22:16;101601.28;;;4.80
66113;BMP280;52893;52.870;5.822;2022-12-07T05:24:43;101587.72;;;4.75
66113;BMP280;52893;52.870;5.822;2022-12-07T05:27:12;101607.84;;;4.89
66113;BMP280;52893;52.870;5.822;2022-12-07T05:29:39;101606.50;;;4.97
66113;BMP280;52893;52.870;5.822;2022-12-07T05:32:07;101613.28;;;5.04
66113;BMP280;52893;52.870;5.822;2022-12-07T05:34:34;101617.63;;;5.10
66113;BMP280;52893;52.870;5.822;2022-12-07T05:37:02;101624.09;;;5.09
66113;BMP280;52893;52.870;5.822;2022-12-07T05:39:29;101629.06;;;5.23
66113;BMP280;52893;52.870;5.822;2022-12-07T05:41:56;101619.88;;;5.39
66113;BMP280;52893;52.870;5.822;2022-12-07T05:44:41;101614.72;;;5.42
66113;BMP280;52893;52.870;5.822;2022-12-07T05:47:09;101619.34;;;5.42
66113;BMP280;52893;52.870;5.822;2022-12-07T05:49:36;101610.94;;;5.43
66113;BMP280;52893;52.870;5.822;2022-12-07T05:52:04;101592.00;;;5.38
66113;BMP280;52893;52.870;5.822;2022-12-07T05:54:31;101585.75;;;5.33
66113;BMP280;52893;52.870;5.822;2022-12-07T05:56:58;101597.97;;;5.35
66113;BMP280;52893;52.870;5.822;2022-12-07T05:59:25;101582.78;;;5.24
66113;BMP280;52893;52.870;5.822;2022-12-07T06:01:57;101586.25;;;5.20
66113;BMP280;52893;52.870;5.822;2022-12-07T06:04:26;101587.06;;;5.20
66113;BMP280;52893;52.870;5.822;2022-12-07T06:06:53;101570.81;;;5.05
66113;BMP280;52893;52.870;5.822;2022-12-07T06:09:22;101572.16;;;5.02
66113;BMP280;52893;52.870;5.822;2022-12-07T06:11:49;101587.31;;;5.08
66113;BMP280;52893;52.870;5.822;2022-12-07T06:14:34;101578.63;;;5.01
66113;BMP280;52893;52.870;5.822;2022-12-07T06:17:03;101577.00;;;4.95
66113;BMP280;52893;52.870;5.822;2022-12-07T06:19:30;101579.16;;;4.88
66113;BMP280;52893;52.870;5.822;2022-12-07T06:21:58;101576.94;;;4.80
66113;BMP280;52893;52.870;5.822;2022-12-07T06:24:25;101572.56;;;4.69
66113;BMP280;52893;52.870;5.822;2022-12-07T06:26:53;101576.59;;;4.66
66113;BMP280;52893;52.870;5.822;2022-12-07T06:29:20;101577.91;;;4.59
66113;BMP280;52893;52.870;5.822;2022-12-07T06:31:48;101588.19;;;4.52
66113;BMP280;52893;52.870;5.822;2022-12-07T06:34:18;101596.50;;;4.45
66113;BMP280;52893;52.870;5.822;2022-12-07T06:36:46;101589.41;;;4.39
66113;BMP280;52893;52.870;5.822;2022-12-07T06:39:17;101592.38;;;4.33
66113;BMP280;52893;52.870;5.822;2022-12-07T06:41:44;101590.44;;;4.28
66113;BMP280;52893;52.870;5.822;2022-12-07T06:44:12;101591.22;;;4.23
66113;BMP280;52893;52.870;5.822;2022-12-07T06:46:39;101596.00;;;4.16
66113;BMP280;52893;52.870;5.822;2022-12-07T06:49:06;101583.81;;;4.09
66113;BMP280;52893;52.870;5.822;2022-12-07T06:51:35;101596.50;;;4.08
66113;BMP280;52893;52.870;5.822;2022-12-07T06:54:06;101594.88;;;4.07
66113;BMP280;52893;52.870;5.822;2022-12-07T06:56:34;101593.00;;;4.08
66113;BMP280;52893;52.870;5.822;2022-12-07T06:59:01;101593.81;;;4.08
66113;BMP280;52893;52.870;5.822;2022-12-07T07:01:29;101574.56;;;4.00
66113;BMP280;52893;52.870;5.822;2022-12-07T07:03:56;101597.06;;;4.10
66113;BMP280;52893;52.870;5.822;2022-12-07T07:06:23;101600.84;;;4.09
66113;BMP280;52893;52.870;5.822;2022-12-07T07:08:52;101599.78;;;4.10
66113;BMP280;52893;52.870;5.822;2022-12-07T07:11:19;101600.84;;;4.09
66113;BMP280;52893;52.870;5.822;2022-12-07T07:13:46;101597.38;;;4.14
66113;BMP280;52893;52.870;5.822;2022-12-07T07:16:14;101593.31;;;4.16
66113;BMP280;52893;52.870;5.822;2022-12-07T07:18:41;101592.03;;;4.24
66113;BMP280;52893;52.870;5.822;2022-12-07T07:21:08;101592.88;;;4.30
66113;BMP280;52893;52.870;5.822;2022-12-07T07:23:35;101595.09;;;4.38
66113;BMP280;52893;52.870;5.822;2022-12-07T07:26:04;101590.56;;;4.43
66113;BMP280;52893;52.870;5.822;2022-12-07T07:28:31;101590.81;;;4.47
66113;BMP280;52893;52.870;5.822;2022-12-07T07:30:59;101590.81;;;4.47
66113;BMP280;52893;52.870;5.822;2022-12-07T07:33:26;101596.00;;;4.53
66113;BMP280;52893;52.870;5.822;2022-12-07T07:35:53;101603.88;;;4.55
66113;BMP280;52893;52.870;5.822;2022-12-07T07:38:20;101607.91;;;4.57
66113;BMP280;52893;52.870;5.822;2022-12-07T07:40:47;101606.59;;;4.60
66113;BMP280;52893;52.870;5.822;2022-12-07T07:43:16;101606.59;;;4.60
66113;BMP280;52893;52.870;5.822;2022-12-07T07:45:44;101608.22;;;4.61
66113;BMP280;52893;52.870;5.822;2022-12-07T07:48:11;101609.53;;;4.58
66113;BMP280;52893;52.870;5.822;2022-12-07T07:50:38;101613.56;;;4.56
66113;BMP280;52893;52.870;5.822;2022-12-07T07:53:05;101611.97;;;4.55
66113;BMP280;52893;52.870;5.822;2022-12-07T07:55:33;101617.63;;;4.53
66113;BMP280;52893;52.870;5.822;2022-12-07T07:58:00;101547.94;;;4.13
66113;BMP280;52893;52.870;5.822;2022-12-07T08:00:28;101611.38;;;4.48
66113;BMP280;52893;52.870;5.822;2022-12-07T08:02:56;101607.88;;;4.47
66113;BMP280;52893;52.870;5.822;2022-12-07T08:05:23;101611.63;;;4.46
66113;BMP280;52893;52.870;5.822;2022-12-07T08:07:50;101606.47;;;4.45
66113;BMP280;52893;52.870;5.822;2022-12-07T08:10:17;101606.47;;;4.45
66113;BMP280;52893;52.870;5.822;2022-12-07T08:12:45;101606.47;;;4.45
66113;BMP280;52893;52.870;5.822;2022-12-07T08:15:31;101608.38;;;4.44
66113;BMP280;52893;52.870;5.822;2022-12-07T08:17:58;101604.84;;;4.44
66113;BMP280;52893;52.870;5.822;2022-12-07T08:20:26;101605.66;;;4.44
66113;BMP280;52893;52.870;5.822;2022-12-07T08:22:53;101603.78;;;4.45
66113;BMP280;52893;52.870;5.822;2022-12-07T08:25:20;101601.06;;;4.45
66113;BMP280;52893;52.870;5.822;2022-12-07T08:27:48;101608.94;;;4.46
66113;BMP280;52893;52.870;5.822;2022-12-07T08:30:15;101608.69;;;4.48
66113;BMP280;52893;52.870;5.822;2022-12-07T08:32:45;101622.75;;;4.50
66113;BMP280;52893;52.870;5.822;2022-12-07T08:35:14;101627.09;;;4.51
66113;BMP280;52893;52.870;5.822;2022-12-07T08:37:41;101632.50;;;4.56
66113;BMP280;52893;52.870;5.822;2022-12-07T08:40:10;101632.00;;;4.59
66113;BMP280;52893;52.870;5.822;2022-12-07T08:42:41;101633.97;;;4.68
66113;BMP280;52893;52.870;5.822;2022-12-07T08:45:10;101634.81;;;4.79
66113;BMP280;52893;52.870;5.822;2022-12-07T08:47:41;101631.59;;;4.92
66113;BMP280;52893;52.870;5.822;2022-12-07T08:50:11;101629.28;;;5.06
66113;BMP280;52893;52.870;5.822;2022-12-07T08:52:39;101568.53;;;4.82
66113;BMP280;52893;52.870;5.822;2022-12-07T08:55:09;101627.97;;;5.24
66113;BMP280;52893;52.870;5.822;2022-12-07T08:57:37;101636.06;;;5.29
66113;BMP280;52893;52.870;5.822;2022-12-07T09:00:06;101635.00;;;5.30
66113;BMP280;52893;52.870;5.822;2022-12-07T09:02:34;101634.75;;;5.31
66113;BMP280;52893;52.870;5.822;2022-12-07T09:05:01;101625.59;;;5.53
66113;BMP280;52893;52.870;5.822;2022-12-07T09:07:31;101595.56;;;5.79
66113;BMP280;52893;52.870;5.822;2022-12-07T09:09:59;101622.06;;;6.38
66113;BMP280;52893;52.870;5.822;2022-12-07T09:12:26;101623.81;;;6.88
66113;BMP280;52893;52.870;5.822;2022-12-07T09:14:54;101619.00;;;7.24
66113;BMP280;52893;52.870;5.822;2022-12-07T09:17:21;101620.78;;;7.44
66113;BMP280;52893;52.870;5.822;2022-12-07T09:19:48;101619.84;;;7.64
66113;BMP280;52893;52.870;5.822;2022-12-07T09:22:15;101616.13;;;7.83
66113;BMP280;52893;52.870;5.822;2022-12-07T09:24:44;101625.84;;;7.89
66113;BMP280;52893;52.870;5.822;2022-12-07T09:27:11;101620.56;;;8.03
66113;BMP280;52893;52.870;5.822;2022-12-07T09:29:38;101639.22;;;8.15
66113;BMP280;52893;52.870;5.822;2022-12-07T09:32:06;101637.50;;;8.24
66113;BMP280;52893;52.870;5.822;2022-12-07T09:34:33;101638.13;;;8.16
66113;BMP280;52893;52.870;5.822;2022-12-07T09:37:01;101644.19;;;8.08
66113;BMP280;52893;52.870;5.822;2022-12-07T09:39:29;101632.03;;;8.00
66113;BMP280;52893;52.870;5.822;2022-12-07T09:41:59;101630.38;;;7.99
66113;BMP280;52893;52.870;5.822;2022-12-07T09:44:29;101618.38;;;8.58
66113;BMP280;52893;52.870;5.822;2022-12-07T09:46:57;101626.00;;;9.35
66113;BMP280;52893;52.870;5.822;2022-12-07T09:49:28;101620.72;;;9.90
66113;BMP280;52893;52.870;5.822;2022-12-07T09:52:01;101631.44;;;10.00
66113;BMP280;52893;52.870;5.822;2022-12-07T09:54:29;101625.59;;;9.93
66113;BMP280;52893;52.870;5.822;2022-12-07T09:56:56;101631.91;;;10.21
66113;BMP280;52893;52.870;5.822;2022-12-07T09:59:25;101633.53;;;10.63
66113;BMP280;52893;52.870;5.822;2022-12-07T10:01:52;101624.25;;;11.22
66113;BMP280;52893;52.870;5.822;2022-12-07T10:04:21;101630.28;;;11.77
66113;BMP280;52893;52.870;5.822;2022-12-07T10:06:49;101623.91;;;12.21
66113;BMP280;52893;52.870;5.822;2022-12-07T10:09:19;101633.16;;;12.51
66113;BMP280;52893;52.870;5.822;2022-12-07T10:12:04;101627.66;;;12.51
66113;BMP280;52893;52.870;5.822;2022-12-07T10:14:35;101623.03;;;12.86
66113;BMP280;52893;52.870;5.822;2022-12-07T10:17:02;101611.13;;;13.16
66113;BMP280;52893;52.870;5.822;2022-12-07T10:19:49;101610.59;;;13.48
66113;BMP280;52893;52.870;5.822;2022-12-07T10:22:17;101609.00;;;13.85
66113;BMP280;52893;52.870;5.822;2022-12-07T10:24:46;101605.88;;;13.95
66113;BMP280;52893;52.870;5.822;2022-12-07T10:27:18;101605.28;;;14.19
66113;BMP280;52893;52.870;5.822;2022-12-07T10:29:50;101608.31;;;14.26
66113;BMP280;52893;52.870;5.822;2022-12-07T10:32:31;101615.97;;;14.21
66113;BMP280;52893;52.870;5.822;2022-12-07T10:35:20;101615.16;;;13.36
66113;BMP280;52893;52.870;5.822;2022-12-07T10:37:48;101608.50;;;12.51
66113;BMP280;52893;52.870;5.822;2022-12-07T10:40:28;101610.63;;;11.75
66113;BMP280;52893;52.870;5.822;2022-12-07T10:43:01;101598.38;;;11.20
66113;BMP280;52893;52.870;5.822;2022-12-07T10:45:30;101602.56;;;10.81
66113;BMP280;52893;52.870;5.822;2022-12-07T10:48:04;101598.16;;;10.44
66113;BMP280;52893;52.870;5.822;2022-12-07T10:50:52;101585.59;;;10.43
66113;BMP280;52893;52.870;5.822;2022-12-07T10:53:40;101559.75;;;10.41
66113;BMP280;52893;52.870;5.822;2022-12-07T10:56:32;101570.41;;;10.51
66113;BMP280;52893;52.870;5.822;2022-12-07T10:59:21;101568.63;;;10.19
66113;BMP280;52893;52.870;5.822;2022-12-07T11:01:57;101562.84;;;9.93
66113;BMP280;52893;52.870;5.822;2022-12-07T11:04:33;101561.53;;;9.77
66113;BMP280;52893;52.870;5.822;2022-12-07T11:07:09;101561.75;;;9.94
66113;BMP280;52893;52.870;5.822;2022-12-07T11:10:01;101564.97;;;10.51
66113;BMP280;52893;52.870;5.822;2022-12-07T11:12:43;101564.13;;;11.22
66113;BMP280;52893;52.870;5.822;2022-12-07T11:15:17;101557.06;;;11.43
66113;BMP280;52893;52.870;5.822;2022-12-07T11:17:54;101560.94;;;11.20
66113;BMP280;52893;52.870;5.822;2022-12-07T11:20:32;101549.13;;;10.75
66113;BMP280;52893;52.870;5.822;2022-12-07T11:23:12;101538.69;;;10.27
66113;BMP280;52893;52.870;5.822;2022-12-07T11:25:47;101543.06;;;9.88
66113;BMP280;52893;52.870;5.822;2022-12-07T11:28:26;101540.88;;;9.57
66113;BMP280;52893;52.870;5.822;2022-12-07T11:31:06;101544.25;;;9.35
66113;BMP280;52893;52.870;5.822;2022-12-07T11:33:41;101549.44;;;9.18
66113;BMP280;52893;52.870;5.822;2022-12-07T11:36:23;101539.88;;;9.02
66113;BMP280;52893;52.870;5.822;2022-12-07T11:39:00;101527.53;;;8.91
66113;BMP280;52893;52.870;5.822;2022-12-07T11:41:31;101529.88;;;8.79
66113;BMP280;52893;52.870;5.822;2022-12-07T11:44:04;101530.03;;;8.69
66113;BMP280;52893;52.870;5.822;2022-12-07T11:46:44;101527.44;;;8.59
66113;BMP280;52893;52.870;5.822;2022-12-07T11:49:20;101529.69;;;8.52
66113;BMP280;52893;52.870;5.822;2022-12-07T11:51:54;101517.28;;;8.45
66113;BMP280;52893;52.870;5.822;2022-12-07T11:54:28;101524.38;;;8.41
66113;BMP280;52893;52.870;5.822;2022-12-07T11:57:02;101521.47;;;8.38
66113;BMP280;52893;52.870;5.822;2022-12-07T11:59:33;101517.69;;;8.34
66113;BMP280;52893;52.870;5.822;2022-12-07T12:02:13;101526.22;;;8.27
66113;BMP280;52893;52.870;5.822;2022-12-07T12:04:49;101510.47;;;8.24
66113;BMP280;52893;52.870;5.822;2022-12-07T12:07:22;101506.69;;;8.20
66113;BMP280;52893;52.870;5.822;2022-12-07T12:09:52;101509.91;;;8.27
66113;BMP280;52893;52.870;5.822;2022-12-07T12:12:35;101503.38;;;8.28
66113;BMP280;52893;52.870;5.822;2022-12-07T12:15:16;101490.72;;;8.19
66113;BMP280;52893;52.870;5.822;2022-12-07T12:18:03;101503.13;;;8.25
66113;BMP280;52893;52.870;5.822;2022-12-07T12:20:39;101485.03;;;8.15
66113;BMP280;52893;52.870;5.822;2022-12-07T12:23:11;101494.44;;;8.23
66113;BMP280;52893;52.870;5.822;2022-12-07T12:25:42;101499.31;;;8.26
66113;BMP280;52893;52.870;5.822;2022-12-07T12:28:22;101489.47;;;8.30
66113;BMP280;52893;52.870;5.822;2022-12-07T12:31:05;101494.59;;;8.31
66113;BMP280;52893;52.870;5.822;2022-12-07T12:33:33;101476.59;;;8.35
66113;BMP280;52893;52.870;5.822;2022-12-07T12:36:24;101479.06;;;8.37
66113;BMP280;52893;52.870;5.822;2022-12-07T12:39:08;101479.56;;;8.39
66113;BMP280;52893;52.870;5.822;2022-12-07T12:41:54;101476.59;;;8.35
66113;BMP280;52893;52.870;5.822;2022-12-07T12:45:11;101478.91;;;8.28
66113;BMP280;52893;52.870;5.822;2022-12-07T12:47:55;101480.56;;;8.24
66113;BMP280;52893;52.870;5.822;2022-12-07T12:50:28;101476.78;;;8.20
66113;BMP280;52893;52.870;5.822;2022-12-07T12:53:12;101470.38;;;8.11
66113;BMP280;52893;52.870;5.822;2022-12-07T12:56:15;101479.19;;;8.03
66113;BMP280;52893;52.870;5.822;2022-12-07T12:58:47;101467.84;;;7.96
66113;BMP280;52893;52.870;5.822;2022-12-07T13:01:39;101463.56;;;7.90
66113;BMP280;52893;52.870;5.822;2022-12-07T13:07:56;101457.31;;;7.89
66113;BMP280;52893;52.870;5.822;2022-12-07T13:10:34;101433.84;;;7.75
66113;BMP280;52893;52.870;5.822;2022-12-07T13:13:04;101451.59;;;7.91
66113;BMP280;52893;52.870;5.822;2022-12-07T13:15:35;101446.22;;;7.86
66113;BMP280;52893;52.870;5.822;2022-12-07T13:18:21;101452.16;;;7.88
66113;BMP280;52893;52.870;5.822;2022-12-07T13:20:53;101442.41;;;7.87
66113;BMP280;52893;52.870;5.822;2022-12-07T13:23:31;101442.97;;;7.84
66113;BMP280;52893;52.870;5.822;2022-12-07T13:26:06;101441.34;;;7.83
66113;BMP280;52893;52.870;5.822;2022-12-07T13:28:37;101440.56;;;7.82
66113;BMP280;52893;52.870;5.822;2022-12-07T13:31:33;101425.75;;;7.70
66113;BMP280;52893;52.870;5.822;2022-12-07T13:34:02;101439.78;;;7.77
66113;BMP280;52893;52.870;5.822;2022-12-07T13:36:33;101426.56;;;7.70
66113;BMP280;52893;52.870;5.822;2022-12-07T13:39:18;101424.13;;;7.69
66113;BMP280;52893;52.870;5.822;2022-12-07T13:41:50;101435.00;;;7.69
66113;BMP280;52893;52.870;5.822;2022-12-07T13:44:19;101427.94;;;7.68
66113;BMP280;52893;52.870;5.822;2022-12-07T13:46:51;101419.88;;;7.63
66113;BMP280;52893;52.870;5.822;2022-12-07T13:49:23;101415.81;;;7.60
66113;BMP280;52893;52.870;5.822;2022-12-07T13:51:51;101393.94;;;7.46
66113;BMP280;52893;52.870;5.822;2022-12-07T13:54:21;101410.94;;;7.57
66113;BMP280;52893;52.870;5.822;2022-12-07T13:56:50;101415.56;;;7.56
66113;BMP280;52893;52.870;5.822;2022-12-07T13:59:19;101421.59;;;7.53
66113;BMP280;52893;52.870;5.822;2022-12-07T14:01:48;101418.34;;;7.51
66113;BMP280;52893;52.870;5.822;2022-12-07T14:04:30;101408.03;;;7.48
66113;BMP280;52893;52.870;5.822;2022-12-07T14:06:58;101394.00;;;7.41
66113;BMP280;52893;52.870;5.822;2022-12-07T14:09:29;101392.59;;;7.44
66113;BMP280;52893;52.870;5.822;2022-12-07T14:11:57;101397.72;;;7.45
66113;BMP280;52893;52.870;5.822;2022-12-07T14:14:26;101396.13;;;7.44
66113;BMP280;52893;52.870;5.822;2022-12-07T14:16:57;101402.16;;;7.41
66113;BMP280;52893;52.870;5.822;2022-12-07T14:19:46;101387.56;;;7.32
66113;BMP280;52893;52.870;5.822;2022-12-07T14:22:23;101401.09;;;7.37
66113;BMP280;52893;52.870;5.822;2022-12-07T14:24:58;101402.50;;;7.35
66113;BMP280;52893;52.870;5.822;2022-12-07T14:27:31;101401.97;;;7.33
66113;BMP280;52893;52.870;5.822;2022-12-07T14:30:00;101404.94;;;7.31
66113;BMP280;52893;52.870;5.822;2022-12-07T14:32:30;101403.41;;;7.25
66113;BMP280;52893;52.870;5.822;2022-12-07T14:34:59;101394.47;;;7.19
66113;BMP280;52893;52.870;5.822;2022-12-07T14:37:28;101420.25;;;7.22
66113;BMP280;52893;52.870;5.822;2022-12-07T14:39:57;101408.94;;;7.15